Terminal Aerodrome Forecast
Issued by NWS Detroit/Pontiac, MI

Home | Current Version | Previous Version | Text Only | Print | Product List | Glossary On
Versions: 1 2 3 4 5 6 7 8 9 10 11 12 13 14 15 16 17 18 19 20 21 22
483
FTUS43 KDTX 270726 AAA
TAFFNT
TAF AMD
KFNT 270726Z 2707/2806 22005KT 4SM BR OVC006
     FM271200 24005KT 5SM BR OVC010
     FM271500 26008KT P6SM BKN015 OVC050
     FM271800 27008KT P6SM BKN025 BKN050
     FM280000 VRB03KT P6SM SCT025 OVC100=

USA.gov is the U.S. government's official web portal to all federal, state and local government web resources and services.